createdAt,value
2023-03-22T00:00:44.596Z,11.93
2023-03-22T00:03:48.894Z,11.80
2023-03-22T00:06:51.315Z,12.40
2023-03-22T00:09:54.021Z,11.77
2023-03-22T00:12:56.518Z,13.27
2023-03-22T00:15:59.748Z,11.17
2023-03-22T00:19:02.696Z,13.05
2023-03-22T00:22:06.936Z,13.48
2023-03-22T00:25:10.174Z,10.95
2023-03-22T00:28:14.534Z,14.23
2023-03-22T00:31:17.379Z,13.20
2023-03-22T00:34:20.670Z,11.65
2023-03-22T00:37:23.132Z,13.13
2023-03-22T00:40:25.786Z,12.82
2023-03-22T00:43:28.148Z,11.43
2023-03-22T00:46:30.517Z,12.93
2023-03-22T00:49:33.132Z,12.23
2023-03-22T00:52:36.080Z,11.30
2023-03-22T00:55:38.795Z,11.90
2023-03-22T00:58:42.606Z,12.40
2023-03-22T01:01:45.307Z,13.53
2023-03-22T01:04:48.454Z,11.93
2023-03-22T01:07:50.988Z,14.90
2023-03-22T01:10:53.474Z,12.40
2023-03-22T01:13:55.942Z,13.60
2023-03-22T01:16:58.724Z,15.00
2023-03-22T01:20:01.316Z,14.90
2023-03-22T01:23:04.754Z,13.38
2023-03-22T01:26:07.348Z,12.77
2023-03-22T01:29:10.463Z,11.20
2023-03-22T01:32:12.916Z,14.63
2023-03-22T01:35:16.054Z,12.77
2023-03-22T01:38:18.641Z,11.77
2023-03-22T01:41:35.165Z,11.00
2023-03-22T01:44:45.051Z,12.43
2023-03-22T01:47:54.948Z,11.77
2023-03-22T01:51:20.111Z,13.48
2023-03-22T01:54:47.925Z,11.20
2023-03-22T01:58:02.726Z,12.95
2023-03-22T02:01:17.036Z,12.47
2023-03-22T02:04:34.273Z,13.57
2023-03-22T02:07:41.158Z,12.45
2023-03-22T02:10:43.930Z,13.00
2023-03-22T02:14:17.502Z,16.10
2023-03-22T02:18:07.548Z,14.07
2023-03-22T02:21:45.680Z,16.13
2023-03-22T02:25:19.064Z,13.90
2023-03-22T02:28:47.686Z,13.52
2023-03-22T02:32:27.568Z,12.60
2023-03-22T02:35:43.428Z,12.87
2023-03-22T02:39:16.854Z,13.57
2023-03-22T02:42:43.853Z,13.18
2023-03-22T02:46:02.242Z,12.90
2023-03-22T02:49:21.588Z,12.98
2023-03-22T02:52:40.419Z,13.13
2023-03-22T02:56:06.204Z,11.40
2023-03-22T02:59:11.592Z,15.20
2023-03-22T03:02:18.583Z,13.23
2023-03-22T03:05:23.484Z,12.43
2023-03-22T03:08:29.428Z,11.83
2023-03-22T03:11:32.992Z,12.67
2023-03-22T03:14:36.507Z,12.05
2023-03-22T03:17:57.303Z,10.40
2023-03-22T03:21:07.585Z,13.98
2023-03-22T03:24:48.940Z,12.73
2023-03-22T03:27:58.308Z,13.27
2023-03-22T03:31:27.115Z,12.35
2023-03-22T03:34:42.236Z,15.07
2023-03-22T03:37:49.021Z,11.82
2023-03-22T03:40:57.819Z,11.10
2023-03-22T03:44:00.614Z,12.63
2023-03-22T03:47:05.206Z,14.98
2023-03-22T03:50:08.633Z,12.38
2023-03-22T03:53:11.428Z,12.00
2023-03-22T03:56:13.917Z,11.27
2023-03-22T03:59:21.071Z,14.20
2023-03-22T04:02:26.010Z,12.52
2023-03-22T04:05:30.294Z,11.60
2023-03-22T04:08:32.739Z,12.35
2023-03-22T04:11:35.303Z,12.70
2023-03-22T04:14:39.515Z,14.53
2023-03-22T04:17:51.156Z,14.18
2023-03-22T04:20:57.159Z,13.68
2023-03-22T04:24:00.663Z,13.38
2023-03-22T04:27:06.383Z,11.37
2023-03-22T04:30:36.466Z,10.97
2023-03-22T04:34:00.407Z,13.13
2023-03-22T04:37:13.539Z,16.90
2023-03-22T04:40:28.515Z,15.52
2023-03-22T04:43:35.636Z,17.93
2023-03-22T04:46:40.183Z,14.97
2023-03-22T04:49:43.176Z,15.15
2023-03-22T04:52:48.096Z,14.73
2023-03-22T04:55:50.945Z,13.02
2023-03-22T04:58:54.851Z,12.73
2023-03-22T05:01:57.324Z,15.93
2023-03-22T05:05:02.523Z,17.27
2023-03-22T05:08:14.385Z,16.25
2023-03-22T05:11:20.381Z,15.55
2023-03-22T05:14:36.085Z,16.83
2023-03-22T05:17:39.277Z,18.10
2023-03-22T05:20:42.751Z,23.40
2023-03-22T05:23:58.620Z,17.52
2023-03-22T05:27:01.536Z,19.75
2023-03-22T05:30:05.153Z,19.53
2023-03-22T05:33:22.046Z,21.03
2023-03-22T05:36:29.728Z,18.85
2023-03-22T05:39:45.453Z,21.50
2023-03-22T05:42:48.768Z,16.23
2023-03-22T05:45:58.615Z,14.50
2023-03-22T05:49:13.633Z,17.03
2023-03-22T05:52:16.923Z,15.15
2023-03-22T05:55:32.104Z,17.65
2023-03-22T05:58:37.269Z,15.07
2023-03-22T06:01:40.025Z,14.47
2023-03-22T06:04:53.408Z,15.03
2023-03-22T06:07:56.695Z,15.45
2023-03-22T06:10:59.913Z,15.95
2023-03-22T06:14:02.599Z,15.63
2023-03-22T06:17:19.682Z,18.13
2023-03-22T06:20:23.859Z,17.57
2023-03-22T06:23:33.369Z,17.67
2023-03-22T06:26:36.259Z,16.42
2023-03-22T06:29:39.084Z,16.77
2023-03-22T06:32:42.882Z,18.37
2023-03-22T06:35:45.447Z,15.57
2023-03-22T06:38:54.179Z,15.40
2023-03-22T06:41:56.741Z,16.33
2023-03-22T06:45:00.025Z,16.45
2023-03-22T06:48:07.514Z,13.07
2023-03-22T06:51:30.587Z,21.30
2023-03-22T06:54:33.618Z,21.30
2023-03-22T06:57:36.659Z,25.73
2023-03-22T07:00:39.891Z,22.10
2023-03-22T07:03:45.788Z,12.57
2023-03-22T07:06:51.091Z,14.50
2023-03-22T07:09:54.192Z,15.60
2023-03-22T07:12:57.409Z,15.15
2023-03-22T07:16:02.241Z,13.77
2023-03-22T07:19:26.132Z,13.37
2023-03-22T07:22:29.562Z,14.80
2023-03-22T07:25:32.502Z,12.05
2023-03-22T07:28:53.002Z,13.43
2023-03-22T07:32:01.794Z,10.63
2023-03-22T07:35:17.107Z,12.33
2023-03-22T07:38:20.672Z,10.40
2023-03-22T07:41:24.155Z,10.52
2023-03-22T07:44:42.217Z,13.23
2023-03-22T07:47:53.452Z,9.43
2023-03-22T07:51:14.734Z,11.33
2023-03-22T07:54:32.416Z,12.13
2023-03-22T07:57:36.941Z,13.65
2023-03-22T08:00:39.906Z,10.20
2023-03-22T08:04:22.844Z,10.80
2023-03-22T08:07:33.464Z,8.63
2023-03-22T08:10:36.506Z,7.47
2023-03-22T08:13:40.380Z,9.48
2023-03-22T08:16:46.471Z,9.02
2023-03-22T08:19:50.340Z,11.95
2023-03-22T08:22:58.640Z,10.10
2023-03-22T08:26:20.185Z,12.67
2023-03-22T08:29:25.899Z,10.02
2023-03-22T08:32:28.986Z,8.23
2023-03-22T08:35:33.800Z,7.72
2023-03-22T08:38:36.702Z,11.37
2023-03-22T08:41:42.498Z,11.10
2023-03-22T08:44:46.205Z,9.73
2023-03-22T08:47:49.314Z,13.32
2023-03-22T08:50:54.893Z,11.00
2023-03-22T08:54:05.530Z,12.30
2023-03-22T08:57:31.849Z,11.93
2023-03-22T09:00:54.258Z,11.10
2023-03-22T09:04:16.087Z,11.18
2023-03-22T09:07:20.398Z,11.98
2023-03-22T09:10:32.752Z,11.03
2023-03-22T09:13:35.409Z,12.30
2023-03-22T09:16:39.258Z,11.75
2023-03-22T09:19:41.852Z,11.60
2023-03-22T09:22:44.690Z,9.23
2023-03-22T09:25:49.935Z,11.87
2023-03-22T09:28:56.796Z,12.70
2023-03-22T09:31:59.807Z,11.98
2023-03-22T09:35:08.116Z,11.25
2023-03-22T09:38:21.567Z,11.60
2023-03-22T09:41:33.444Z,12.87
2023-03-22T09:44:41.392Z,14.07
2023-03-22T09:47:51.589Z,13.32
2023-03-22T09:50:55.821Z,12.80
2023-03-22T09:53:58.696Z,22.13
2023-03-22T09:57:15.610Z,16.80
2023-03-22T10:00:31.466Z,14.97
2023-03-22T10:04:04.800Z,12.15
2023-03-22T10:07:27.199Z,12.35
2023-03-22T10:10:30.601Z,9.52
2023-03-22T10:13:51.001Z,11.27
2023-03-22T10:16:56.606Z,10.50
2023-03-22T10:20:02.192Z,9.13
2023-03-22T10:23:10.644Z,9.48
2023-03-22T10:26:34.638Z,13.23
2023-03-22T10:29:43.714Z,9.93
2023-03-22T10:33:01.882Z,9.17
2023-03-22T10:36:08.345Z,9.05
2023-03-22T10:39:19.459Z,9.98
2023-03-22T10:42:26.417Z,10.55
2023-03-22T10:45:32.056Z,11.83
2023-03-22T10:48:42.262Z,11.63
2023-03-22T10:51:54.634Z,13.98
2023-03-22T10:55:02.274Z,9.18
2023-03-22T10:58:15.059Z,8.93
2023-03-22T11:01:27.402Z,19.00
2023-03-22T11:04:31.329Z,9.70
2023-03-22T11:07:36.978Z,10.57
2023-03-22T11:10:39.583Z,8.77
2023-03-22T11:13:42.880Z,10.75
2023-03-22T11:17:00.961Z,10.33
2023-03-22T11:20:09.931Z,9.50
2023-03-22T11:23:18.182Z,9.25
2023-03-22T11:26:28.775Z,12.00
2023-03-22T11:29:42.772Z,11.70
2023-03-22T11:32:45.451Z,8.60
2023-03-22T11:35:57.504Z,9.63
2023-03-22T11:39:02.693Z,9.77
2023-03-22T11:42:06.703Z,9.30
2023-03-22T11:45:16.496Z,11.05
2023-03-22T11:48:24.007Z,8.27
2023-03-22T11:51:30.936Z,12.77
2023-03-22T11:54:36.209Z,9.40
2023-03-22T11:57:38.777Z,9.63
2023-03-22T12:00:42.920Z,7.90
2023-03-22T12:03:51.405Z,8.60
2023-03-22T12:06:59.883Z,6.97
2023-03-22T12:10:15.569Z,8.82
2023-03-22T12:13:23.555Z,7.55
2023-03-22T12:16:31.971Z,7.70
2023-03-22T12:20:13.420Z,7.37
2023-03-22T12:23:19.385Z,10.67
2023-03-22T12:26:27.706Z,9.05
2023-03-22T12:29:35.062Z,7.45
2023-03-22T12:32:44.847Z,6.53
2023-03-22T12:35:49.164Z,10.87
2023-03-22T12:38:56.806Z,8.20
2023-03-22T12:42:10.463Z,7.82
2023-03-22T12:45:22.016Z,6.18
2023-03-22T12:48:38.426Z,5.63
2023-03-22T12:51:43.352Z,7.30
2023-03-22T12:54:49.282Z,5.57
2023-03-22T12:57:54.531Z,7.22
2023-03-22T13:01:09.679Z,6.30
2023-03-22T13:04:36.464Z,5.50
2023-03-22T13:07:47.986Z,7.57
2023-03-22T13:11:01.695Z,8.17
2023-03-22T13:14:04.711Z,5.47
2023-03-22T13:17:07.730Z,8.30
2023-03-22T13:20:13.673Z,7.00
2023-03-22T13:23:27.049Z,6.93
2023-03-22T13:26:52.972Z,5.87
2023-03-22T13:29:57.992Z,6.50
2023-03-22T13:33:12.744Z,5.15
2023-03-22T13:36:25.937Z,7.80
2023-03-22T13:39:34.641Z,7.83
2023-03-22T13:42:40.256Z,8.37
2023-03-22T13:46:04.164Z,7.72
2023-03-22T13:49:25.369Z,5.95
2023-03-22T13:52:34.853Z,7.57
2023-03-22T13:55:41.730Z,6.20
2023-03-22T13:58:52.978Z,7.03
2023-03-22T14:02:18.813Z,7.00
2023-03-22T14:05:23.517Z,6.95
2023-03-22T14:08:29.275Z,6.88
2023-03-22T14:11:46.111Z,8.27
2023-03-22T14:14:56.985Z,5.47
2023-03-22T14:18:23.266Z,6.40
2023-03-22T14:21:35.749Z,6.78
